Time;durP1;ratioP1;P1;durP2;ratioP2;P2;SDS_P1;SDS_P2;PMS_P1;PMS_P2;Temp;Humidity;BMP_temperature;BMP_pressure;BME280_temperature;BME280_humidity;BME280_pressure;Samples;Min_cycle;Max_cycle;Signal;HPM_P1;HPM_P2
2023/04/04 00:02:09;;;;;;;3.35;1.85;;;;;;;;;;4972635;28;20026;-67
2023/04/04 00:04:34;;;;;;;4.35;2.00;;;;;;;;;;4972282;28;20086;-68
2023/04/04 00:07:00;;;;;;;4.90;2.05;;;;;;;;;;4972307;28;20042;-67
2023/04/04 00:09:25;;;;;;;3.58;1.98;;;;;;;;;;4971997;28;20023;-68
2023/04/04 00:11:51;;;;;;;3.88;2.17;;;;;;;;;;4971351;28;20027;-69
2023/04/04 00:14:16;;;;;;;3.42;1.95;;;;;;;;;;4971856;28;20027;-67
2023/04/04 00:16:42;;;;;;;3.28;2.13;;;;;;;;;;4972170;28;20029;-67
2023/04/04 00:19:10;;;;;;;4.03;1.83;;;;;;;;;;4972306;28;20127;-67
2023/04/04 00:21:35;;;;;;;4.25;2.10;;;;;;;;;;4972506;28;20116;-67
2023/04/04 00:24:01;;;;;;;3.55;2.20;;;;;;;;;;4972159;28;20602;-68
2023/04/04 00:26:26;;;;;;;5.15;2.25;;;;;;;;;;4972102;28;20029;-69
2023/04/04 00:28:52;;;;;;;4.03;1.95;;;;;;;;;;4972015;28;20030;-68
2023/04/04 00:31:18;;;;;;;3.38;2.20;;;;;;;;;;4971963;28;20073;-67
2023/04/04 00:33:43;;;;;;;5.82;2.22;;;;;;;;;;4971786;28;20119;-67
2023/04/04 00:36:09;;;;;;;3.25;2.20;;;;;;;;;;4972028;28;20114;-69
2023/04/04 00:38:35;;;;;;;4.25;2.15;;;;;;;;;;4971809;28;20089;-68
2023/04/04 00:41:00;;;;;;;3.95;2.33;;;;;;;;;;4972111;28;20031;-67
2023/04/04 00:43:26;;;;;;;3.05;1.98;;;;;;;;;;4971787;28;20387;-68
2023/04/04 00:45:51;;;;;;;4.60;2.50;;;;;;;;;;4971799;28;20167;-67
2023/04/04 00:48:17;;;;;;;3.20;2.10;;;;;;;;;;4971396;28;20403;-68
2023/04/04 00:50:42;;;;;;;3.28;2.17;;;;;;;;;;4971753;28;20483;-67
2023/04/04 00:53:08;;;;;;;3.28;2.10;;;;;;;;;;4971348;28;20050;-68
2023/04/04 00:55:37;;;;;;;3.65;2.28;;;;;;;;;;4971872;28;20031;-66
2023/04/04 00:58:03;;;;;;;3.08;2.13;;;;;;;;;;4971434;28;20034;-68
2023/04/04 01:00:34;;;;;;;3.20;2.00;;;;;;;;;;4971952;28;20525;-67
2023/04/04 01:03:00;;;;;;;3.05;2.10;;;;;;;;;;4971898;28;20061;-68
2023/04/04 01:05:25;;;;;;;3.25;1.80;;;;;;;;;;4971476;28;20026;-68
2023/04/04 01:07:51;;;;;;;3.42;2.20;;;;;;;;;;4971186;28;20042;-68
2023/04/04 01:10:16;;;;;;;3.75;2.10;;;;;;;;;;4971365;28;20553;-70
2023/04/04 01:12:42;;;;;;;2.90;1.90;;;;;;;;;;4975216;28;20034;-68
2023/04/04 01:15:08;;;;;;;3.58;2.00;;;;;;;;;;4971820;28;20062;-68
2023/04/04 01:17:34;;;;;;;3.92;1.92;;;;;;;;;;4971396;28;20490;-67
2023/04/04 01:20:05;;;;;;;2.70;1.83;;;;;;;;;;4971563;28;20030;-67
2023/04/04 01:22:31;;;;;;;;;;;;;;;;;;4971487;28;20022;-68
2023/04/04 01:24:57;;;;;;;3.40;1.70;;;;;;;;;;4970917;28;19921;-68
2023/04/04 01:27:24;;;;;;;3.55;1.88;;;;;;;;;;4970923;28;20023;-68
2023/04/04 01:29:50;;;;;;;3.08;2.00;;;;;;;;;;4970916;28;20031;-66
2023/04/04 01:32:22;;;;;;;4.20;2.28;;;;;;;;;;4971243;28;20058;-69
2023/04/04 01:34:50;;;;;;;3.22;1.73;;;;;;;;;;4970930;28;20739;-68
2023/04/04 01:37:24;;;;;;;2.47;1.67;;;;;;;;;;4971008;28;20114;-69
2023/04/04 01:39:58;;;;;;;3.30;1.80;;;;;;;;;;4970657;28;20514;-68
2023/04/04 01:42:24;;;;;;;4.30;2.00;;;;;;;;;;4971071;28;20474;-67
2023/04/04 01:44:56;;;;;;;3.47;2.00;;;;;;;;;;4970852;28;20089;-69
2023/04/04 01:47:22;;;;;;;3.33;1.92;;;;;;;;;;4970866;28;20051;-66
2023/04/04 01:49:48;;;;;;;3.10;1.85;;;;;;;;;;4970844;28;20019;-66
2023/04/04 01:52:13;;;;;;;3.67;1.98;;;;;;;;;;4971113;28;20593;-68
2023/04/04 01:54:38;;;;;;;3.03;1.80;;;;;;;;;;4970760;28;20078;-66
2023/04/04 01:57:04;;;;;;;3.13;2.00;;;;;;;;;;4970887;28;20023;-67
2023/04/04 01:59:29;;;;;;;3.33;1.90;;;;;;;;;;4970796;28;20085;-67
2023/04/04 02:01:55;;;;;;;2.83;1.90;;;;;;;;;;4970932;28;20031;-67
2023/04/04 02:04:20;;;;;;;2.90;1.90;;;;;;;;;;4970331;28;20049;-68
2023/04/04 02:06:46;;;;;;;3.05;2.05;;;;;;;;;;4970733;28;20102;-67
2023/04/04 02:09:11;;;;;;;3.95;2.08;;;;;;;;;;4970583;28;20027;-67
2023/04/04 02:11:37;;;;;;;3.10;1.85;;;;;;;;;;4970704;28;20494;-68
2023/04/04 02:14:04;;;;;;;3.42;1.98;;;;;;;;;;4970526;28;20027;-67
2023/04/04 02:16:29;;;;;;;3.20;1.92;;;;;;;;;;4970611;28;20031;-67
2023/04/04 02:18:55;;;;;;;2.80;1.70;;;;;;;;;;4970547;28;20042;-68
2023/04/04 02:21:21;;;;;;;2.92;1.70;;;;;;;;;;4970552;28;20031;-68
2023/04/04 02:23:46;;;;;;;3.13;1.77;;;;;;;;;;4970751;28;20499;-68
2023/04/04 02:26:12;;;;;;;3.08;2.05;;;;;;;;;;4970630;28;20057;-68
2023/04/04 02:28:37;;;;;;;2.60;1.73;;;;;;;;;;4970566;28;20109;-68
2023/04/04 02:31:03;;;;;;;3.58;1.95;;;;;;;;;;4970355;28;20055;-68
2023/04/04 02:33:29;;;;;;;3.22;1.73;;;;;;;;;;4972227;28;20033;-68
2023/04/04 02:35:58;;;;;;;3.53;1.88;;;;;;;;;;4973586;28;20022;-67
2023/04/04 02:38:25;;;;;;;3.22;1.88;;;;;;;;;;4973882;28;20026;-67
2023/04/04 02:40:50;;;;;;;3.60;1.80;;;;;;;;;;4973871;28;20492;-67
2023/04/04 02:43:16;;;;;;;2.50;1.65;;;;;;;;;;4974243;28;20102;-68
2023/04/04 02:45:41;;;;;;;2.63;1.73;;;;;;;;;;4973838;28;20656;-67
2023/04/04 02:48:07;;;;;;;2.55;1.80;;;;;;;;;;4973821;28;20015;-67
2023/04/04 02:50:32;;;;;;;2.38;1.60;;;;;;;;;;4973519;28;20510;-66
2023/04/04 02:53:01;;;;;;;3.75;1.98;;;;;;;;;;4973541;28;20443;-67
2023/04/04 02:55:26;;;;;;;2.40;1.50;;;;;;;;;;4973584;28;20030;-67
2023/04/04 02:57:52;;;;;;;2.42;1.50;;;;;;;;;;4973599;28;20031;-65
2023/04/04 03:00:18;;;;;;;2.40;1.70;;;;;;;;;;4973488;28;20570;-67
2023/04/04 03:02:43;;;;;;;2.28;1.58;;;;;;;;;;4972457;28;20494;-67
2023/04/04 03:05:08;;;;;;;3.20;1.70;;;;;;;;;;4973403;28;20412;-68
2023/04/04 03:07:34;;;;;;;2.95;1.63;;;;;;;;;;4973244;28;20375;-66
2023/04/04 03:09:59;;;;;;;2.28;1.60;;;;;;;;;;4973158;28;20061;-68
2023/04/04 03:12:26;;;;;;;2.38;1.58;;;;;;;;;;4973394;28;20027;-67
2023/04/04 03:14:51;;;;;;;2.92;1.70;;;;;;;;;;4973322;28;20023;-66
2023/04/04 03:17:17;;;;;;;2.65;1.80;;;;;;;;;;4973374;28;20034;-68
2023/04/04 03:19:42;;;;;;;2.80;1.80;;;;;;;;;;4973212;28;20077;-68
2023/04/04 03:22:08;;;;;;;3.20;1.83;;;;;;;;;;4973238;28;20035;-68
2023/04/04 03:24:34;;;;;;;3.13;1.75;;;;;;;;;;4973309;28;20023;-68
2023/04/04 03:27:00;;;;;;;2.65;1.65;;;;;;;;;;4972957;28;20097;-67
2023/04/04 03:29:25;;;;;;;2.75;1.83;;;;;;;;;;4972810;28;20479;-67
2023/04/04 03:31:51;;;;;;;2.53;1.60;;;;;;;;;;4973105;28;20031;-69
2023/04/04 03:34:17;;;;;;;2.55;1.77;;;;;;;;;;4973197;28;20042;-69
2023/04/04 03:36:42;;;;;;;2.80;1.77;;;;;;;;;;4972723;28;20030;-68
2023/04/04 03:39:07;;;;;;;2.95;2.00;;;;;;;;;;4973159;28;20054;-68
2023/04/04 03:41:34;;;;;;;3.80;1.80;;;;;;;;;;4972775;28;20033;-68
2023/04/04 03:43:59;;;;;;;3.28;1.88;;;;;;;;;;4972752;28;20031;-68
2023/04/04 03:46:25;;;;;;;4.28;1.75;;;;;;;;;;4972046;28;20042;-68
2023/04/04 03:48:50;;;;;;;2.85;1.90;;;;;;;;;;4972744;28;20038;-68
2023/04/04 03:51:24;;;;;;;3.03;1.60;;;;;;;;;;4972407;28;20074;-68
2023/04/04 03:53:50;;;;;;;3.40;1.90;;;;;;;;;;4972864;28;20030;-68
2023/04/04 03:56:15;;;;;;;2.95;1.80;;;;;;;;;;4972971;28;20546;-67
2023/04/04 03:58:41;;;;;;;2.83;1.90;;;;;;;;;;4972635;28;20435;-67
2023/04/04 04:01:06;;;;;;;2.90;1.80;;;;;;;;;;4972453;28;20042;-68
2023/04/04 04:03:31;;;;;;;2.70;1.80;;;;;;;;;;4972293;28;20175;-68
2023/04/04 04:05:58;;;;;;;3.35;1.83;;;;;;;;;;4972175;28;20023;-67
2023/04/04 04:08:24;;;;;;;4.05;1.95;;;;;;;;;;4972428;28;20027;-67
2023/04/04 04:10:50;;;;;;;3.15;1.75;;;;;;;;;;4972280;28;20064;-68
2023/04/04 04:13:15;;;;;;;3.45;1.73;;;;;;;;;;4972511;28;20031;-68
2023/04/04 04:15:40;;;;;;;3.20;1.90;;;;;;;;;;4972133;28;20463;-67
2023/04/04 04:18:06;;;;;;;2.95;1.80;;;;;;;;;;4970846;28;20120;-68
2023/04/04 04:20:31;;;;;;;3.33;1.90;;;;;;;;;;4972243;28;20101;-68
2023/04/04 04:22:57;;;;;;;2.45;1.80;;;;;;;;;;4972192;28;20166;-69
2023/04/04 04:25:22;;;;;;;3.05;1.83;;;;;;;;;;4972065;28;20109;-69
2023/04/04 04:27:48;;;;;;;2.35;1.65;;;;;;;;;;4972264;28;20058;-66
2023/04/04 04:30:13;;;;;;;2.15;1.60;;;;;;;;;;4971877;28;20491;-67
2023/04/04 04:32:39;;;;;;;2.88;1.88;;;;;;;;;;4972074;28;20019;-67
2023/04/04 04:35:05;;;;;;;3.05;1.75;;;;;;;;;;4972174;28;20597;-68
2023/04/04 04:37:31;;;;;;;2.80;1.85;;;;;;;;;;4971441;28;20019;-67
2023/04/04 04:39:56;;;;;;;4.50;1.70;;;;;;;;;;4971774;28;20505;-68
2023/04/04 04:42:22;;;;;;;3.33;1.70;;;;;;;;;;4971648;28;20558;-68
2023/04/04 04:44:47;;;;;;;2.55;1.67;;;;;;;;;;4971842;28;20027;-67
2023/04/04 04:47:13;;;;;;;2.42;1.70;;;;;;;;;;4970437;28;20027;-67
2023/04/04 04:49:38;;;;;;;3.65;1.75;;;;;;;;;;4971631;28;20030;-67
2023/04/04 04:52:03;;;;;;;2.58;1.70;;;;;;;;;;4971379;28;20057;-68
2023/04/04 04:54:29;;;;;;;3.53;1.95;;;;;;;;;;4971674;28;20027;-66
2023/04/04 04:56:54;;;;;;;3.10;1.98;;;;;;;;;;4970529;28;20050;-67
2023/04/04 04:59:20;;;;;;;4.03;1.92;;;;;;;;;;4971405;28;20027;-67
2023/04/04 05:01:45;;;;;;;3.25;2.00;;;;;;;;;;4971476;28;20114;-67
2023/04/04 05:04:11;;;;;;;2.92;1.80;;;;;;;;;;4971740;28;20398;-67
2023/04/04 05:06:37;;;;;;;3.20;1.90;;;;;;;;;;4973129;28;20065;-67
2023/04/04 05:09:03;;;;;;;3.50;2.03;;;;;;;;;;4972662;28;20054;-67
2023/04/04 05:11:28;;;;;;;3.47;1.90;;;;;;;;;;4976797;28;20514;-68
2023/04/04 05:13:54;;;;;;;3.33;1.92;;;;;;;;;;4976433;28;20058;-68
2023/04/04 05:16:19;;;;;;;2.97;2.08;;;;;;;;;;4975641;28;20039;-68
2023/04/04 05:18:44;;;;;;;2.97;2.00;;;;;;;;;;4971918;28;20034;-67
2023/04/04 05:21:10;;;;;;;2.80;1.85;;;;;;;;;;4971374;28;20034;-68
2023/04/04 05:23:35;;;;;;;3.88;2.25;;;;;;;;;;4971757;28;20545;-66
2023/04/04 05:26:01;;;;;;;3.42;2.08;;;;;;;;;;4969787;28;20510;-68
2023/04/04 05:28:27;;;;;;;4.05;2.58;;;;;;;;;;4971197;28;20085;-68
2023/04/04 05:30:53;;;;;;;3.88;2.20;;;;;;;;;;4971093;28;20105;-68
2023/04/04 05:33:18;;;;;;;3.38;2.30;;;;;;;;;;4971222;28;20031;-67
2023/04/04 05:35:44;;;;;;;3.40;1.88;;;;;;;;;;4971156;28;20575;-67
2023/04/04 05:38:10;;;;;;;3.22;2.10;;;;;;;;;;4970804;28;20106;-66
2023/04/04 05:40:35;;;;;;;3.83;2.30;;;;;;;;;;4970971;28;20034;-67
2023/04/04 05:43:03;;;;;;;3.78;2.17;;;;;;;;;;4970811;28;20628;-67
2023/04/04 05:45:29;;;;;;;3.53;2.00;;;;;;;;;;4971216;28;20023;-66
2023/04/04 05:47:57;;;;;;;5.22;2.20;;;;;;;;;;4970859;28;20517;-67
2023/04/04 05:50:23;;;;;;;3.75;2.30;;;;;;;;;;4970975;28;20074;-67
2023/04/04 05:52:48;;;;;;;3.20;1.90;;;;;;;;;;4970691;28;20062;-67
2023/04/04 05:55:14;;;;;;;3.80;2.25;;;;;;;;;;4970844;28;20089;-67
2023/04/04 05:57:49;;;;;;;5.22;2.60;;;;;;;;;;4970689;28;20061;-67
2023/04/04 06:00:16;;;;;;;4.00;2.25;;;;;;;;;;4969348;28;20471;-67
2023/04/04 06:02:41;;;;;;;4.80;2.45;;;;;;;;;;4969450;28;20063;-67
2023/04/04 06:05:07;;;;;;;5.22;2.35;;;;;;;;;;4970573;28;20154;-67
2023/04/04 06:07:33;;;;;;;4.47;2.33;;;;;;;;;;4969339;28;20035;-67
2023/04/04 06:09:58;;;;;;;4.68;2.55;;;;;;;;;;4974504;28;20526;-68
2023/04/04 06:12:24;;;;;;;3.97;2.28;;;;;;;;;;4974229;28;20023;-66
2023/04/04 06:14:49;;;;;;;3.97;2.17;;;;;;;;;;4974375;28;20050;-67
2023/04/04 06:17:15;;;;;;;6.00;2.60;;;;;;;;;;4974094;28;20027;-67
2023/04/04 06:19:40;;;;;;;4.28;2.15;;;;;;;;;;4974328;28;20424;-68
2023/04/04 06:22:05;;;;;;;5.57;2.38;;;;;;;;;;4972615;28;20714;-67
2023/04/04 06:24:31;;;;;;;5.45;2.40;;;;;;;;;;4974494;28;20023;-67
2023/04/04 06:26:56;;;;;;;4.55;2.38;;;;;;;;;;4974249;28;20023;-67
2023/04/04 06:29:23;;;;;;;4.72;2.28;;;;;;;;;;4974080;28;20030;-68
2023/04/04 06:31:48;;;;;;;5.63;2.35;;;;;;;;;;4973722;28;20526;-66
2023/04/04 06:34:13;;;;;;;3.97;2.38;;;;;;;;;;4974090;28;20710;-68
2023/04/04 06:36:39;;;;;;;3.88;2.42;;;;;;;;;;4973940;28;20114;-67
2023/04/04 06:39:04;;;;;;;3.70;2.47;;;;;;;;;;4973940;28;20046;-68
2023/04/04 06:41:30;;;;;;;4.63;2.53;;;;;;;;;;4973974;28;20442;-68
2023/04/04 06:43:55;;;;;;;4.40;2.65;;;;;;;;;;4973823;28;20034;-66
2023/04/04 06:46:20;;;;;;;3.30;2.50;;;;;;;;;;4972646;28;20026;-67
2023/04/04 06:48:46;;;;;;;4.57;2.50;;;;;;;;;;4972242;28;20042;-66
2023/04/04 06:51:12;;;;;;;4.30;2.60;;;;;;;;;;4972159;28;20046;-67
2023/04/04 06:53:37;;;;;;;4.65;2.90;;;;;;;;;;4973638;28;20027;-69
2023/04/04 06:56:03;;;;;;;6.70;2.85;;;;;;;;;;4972561;28;20029;-67
2023/04/04 06:58:29;;;;;;;4.88;2.78;;;;;;;;;;4973407;28;20372;-68
2023/04/04 07:00:55;;;;;;;3.80;2.47;;;;;;;;;;4973791;28;20041;-68
2023/04/04 07:03:22;;;;;;;4.22;2.40;;;;;;;;;;4973310;28;20151;-68
2023/04/04 07:05:48;;;;;;;4.20;2.53;;;;;;;;;;4973446;28;20031;-67
2023/04/04 07:08:13;;;;;;;6.97;2.42;;;;;;;;;;4973279;28;20026;-68
2023/04/04 07:10:39;;;;;;;3.60;2.33;;;;;;;;;;4973404;28;20027;-68
2023/04/04 07:13:04;;;;;;;6.15;2.45;;;;;;;;;;4973257;28;20027;-67
2023/04/04 07:15:30;;;;;;;3.83;2.40;;;;;;;;;;4973505;28;20097;-67
2023/04/04 07:17:55;;;;;;;6.15;2.33;;;;;;;;;;4973200;28;20034;-68
2023/04/04 07:20:21;;;;;;;3.20;2.20;;;;;;;;;;4972210;28;20059;-68
2023/04/04 07:22:47;;;;;;;3.92;2.25;;;;;;;;;;4972946;28;20023;-68
2023/04/04 07:25:13;;;;;;;3.55;2.10;;;;;;;;;;4973216;28;20046;-67
2023/04/04 07:27:39;;;;;;;3.47;2.17;;;;;;;;;;4972959;28;20023;-68
2023/04/04 07:30:06;;;;;;;4.10;2.30;;;;;;;;;;4971496;28;20049;-69
2023/04/04 07:32:31;;;;;;;3.70;2.38;;;;;;;;;;4973120;28;20031;-68
2023/04/04 07:34:57;;;;;;;4.95;2.35;;;;;;;;;;4973267;28;20133;-68
2023/04/04 07:37:22;;;;;;;3.50;2.22;;;;;;;;;;4972980;28;20033;-68
2023/04/04 07:39:48;;;;;;;3.70;2.47;;;;;;;;;;4972663;28;20023;-68
2023/04/04 07:42:15;;;;;;;5.32;2.20;;;;;;;;;;4971458;28;20033;-67
2023/04/04 07:44:40;;;;;;;3.25;2.05;;;;;;;;;;4972783;28;20019;-68
2023/04/04 07:47:06;;;;;;;3.58;2.28;;;;;;;;;;4972912;28;20026;-68
2023/04/04 07:49:31;;;;;;;5.10;2.70;;;;;;;;;;4972711;28;20034;-68
2023/04/04 07:51:57;;;;;;;3.63;2.60;;;;;;;;;;4972671;28;20034;-67
2023/04/04 07:54:23;;;;;;;6.50;2.55;;;;;;;;;;4972326;28;20076;-67
2023/04/04 07:56:49;;;;;;;4.90;3.20;;;;;;;;;;4972642;28;20367;-67
2023/04/04 07:59:14;;;;;;;5.38;2.45;;;;;;;;;;4972407;28;20495;-68
2023/04/04 08:01:40;;;;;;;4.03;2.20;;;;;;;;;;4972388;28;20027;-67
2023/04/04 08:04:05;;;;;;;3.53;2.40;;;;;;;;;;4972157;28;20049;-67
2023/04/04 08:06:32;;;;;;;6.45;2.30;;;;;;;;;;4972347;28;20041;-67
2023/04/04 08:08:58;;;;;;;5.47;2.20;;;;;;;;;;4972333;28;20035;-67
2023/04/04 08:11:24;;;;;;;5.15;2.25;;;;;;;;;;4972264;28;20026;-67
2023/04/04 08:13:49;;;;;;;3.75;2.20;;;;;;;;;;4972219;28;20042;-66
2023/04/04 08:16:15;;;;;;;3.90;2.25;;;;;;;;;;4972211;28;20019;-67
2023/04/04 08:18:40;;;;;;;3.20;2.00;;;;;;;;;;4971966;28;20030;-67
2023/04/04 08:21:06;;;;;;;3.85;2.30;;;;;;;;;;4971994;28;20117;-66
2023/04/04 08:23:31;;;;;;;5.30;2.40;;;;;;;;;;4970824;28;20061;-68
2023/04/04 08:25:58;;;;;;;4.47;2.22;;;;;;;;;;4972251;28;20019;-68
2023/04/04 08:28:24;;;;;;;3.95;2.20;;;;;;;;;;4971929;28;20035;-67
2023/04/04 08:30:52;;;;;;;2.67;1.88;;;;;;;;;;4971703;28;20042;-66
2023/04/04 08:33:18;;;;;;;5.22;2.50;;;;;;;;;;4971827;28;20034;-66
2023/04/04 08:35:43;;;;;;;3.30;2.40;;;;;;;;;;4971980;28;20234;-68
2023/04/04 08:38:09;;;;;;;4.93;2.22;;;;;;;;;;4971629;28;20035;-68
2023/04/04 08:40:34;;;;;;;3.50;2.10;;;;;;;;;;4971688;28;20034;-68
2023/04/04 08:43:00;;;;;;;3.22;2.00;;;;;;;;;;4971964;28;20556;-67
2023/04/04 08:45:29;;;;;;;4.43;2.00;;;;;;;;;;4971879;28;20098;-68
2023/04/04 08:47:57;;;;;;;4.22;1.83;;;;;;;;;;4971890;28;20070;-68
2023/04/04 08:50:24;;;;;;;3.30;1.80;;;;;;;;;;4971295;28;20038;-68
2023/04/04 08:52:49;;;;;;;4.00;1.90;;;;;;;;;;4971421;28;20055;-68
2023/04/04 08:55:15;;;;;;;5.40;2.13;;;;;;;;;;4971375;28;20033;-68
2023/04/04 08:57:41;;;;;;;3.92;2.00;;;;;;;;;;4971737;28;20574;-67
2023/04/04 09:00:07;;;;;;;3.50;2.05;;;;;;;;;;4971493;28;20034;-67
2023/04/04 09:02:48;;;;;;;3.65;2.05;;;;;;;;;;4971553;28;20034;-68
2023/04/04 09:05:15;;;;;;;3.90;1.90;;;;;;;;;;4971286;28;20050;-68
2023/04/04 09:07:41;;;;;;;4.50;1.65;;;;;;;;;;4971238;28;20101;-68
2023/04/04 09:10:10;;;;;;;2.95;1.80;;;;;;;;;;4971173;28;20118;-68
2023/04/04 09:12:40;;;;;;;3.25;2.00;;;;;;;;;;4971339;28;20573;-69
2023/04/04 09:15:06;;;;;;;2.40;1.70;;;;;;;;;;4971145;28;20026;-67
2023/04/04 09:17:31;;;;;;;2.90;1.70;;;;;;;;;;4971378;28;20398;-68
2023/04/04 09:20:03;;;;;;;2.33;1.40;;;;;;;;;;4971287;28;20382;-67
2023/04/04 09:22:29;;;;;;;2.55;1.60;;;;;;;;;;4970981;28;20089;-68
2023/04/04 09:24:55;;;;;;;2.60;1.55;;;;;;;;;;4971290;28;20551;-67
2023/04/04 09:27:21;;;;;;;2.92;1.40;;;;;;;;;;4971207;28;20027;-68
2023/04/04 09:29:46;;;;;;;2.35;1.38;;;;;;;;;;4970919;28;20034;-68
2023/04/04 09:32:16;;;;;;;3.05;1.30;;;;;;;;;;4970959;28;20082;-67
2023/04/04 09:34:42;;;;;;;2.58;1.50;;;;;;;;;;4970958;28;20022;-68
2023/04/04 09:37:09;;;;;;;4.68;1.73;;;;;;;;;;4971229;28;20109;-68
2023/04/04 09:39:37;;;;;;;2.42;1.48;;;;;;;;;;4971041;28;20023;-68
2023/04/04 09:42:03;;;;;;;1.77;1.30;;;;;;;;;;4971190;28;20043;-68
2023/04/04 09:44:32;;;;;;;1.98;1.38;;;;;;;;;;4974222;28;20106;-68
2023/04/04 09:47:24;;;;;;;2.20;1.40;;;;;;;;;;4975065;28;20437;-68
2023/04/04 09:49:49;;;;;;;3.10;1.30;;;;;;;;;;4975005;28;20074;-68
2023/04/04 09:52:22;;;;;;;2.28;1.23;;;;;;;;;;4974804;28;20042;-68
2023/04/04 09:54:57;;;;;;;1.92;1.30;;;;;;;;;;4974876;28;20037;-67
2023/04/04 09:57:33;;;;;;;1.83;1.20;;;;;;;;;;4975021;28;20023;-67
2023/04/04 10:00:00;;;;;;;2.88;1.70;;;;;;;;;;4975163;28;20034;-66
2023/04/04 10:02:26;;;;;;;3.17;1.40;;;;;;;;;;4974638;28;20023;-68
2023/04/04 10:04:53;;;;;;;3.70;1.40;;;;;;;;;;4974308;28;20051;-67
2023/04/04 10:07:20;;;;;;;2.00;1.30;;;;;;;;;;4973359;28;20039;-67
2023/04/04 10:09:49;;;;;;;1.75;1.30;;;;;;;;;;4974455;28;20113;-69
2023/04/04 10:12:16;;;;;;;2.22;1.33;;;;;;;;;;4974403;28;20046;-68
2023/04/04 10:14:41;;;;;;;2.50;1.50;;;;;;;;;;4974362;28;20053;-69
2023/04/04 10:17:09;;;;;;;1.98;1.40;;;;;;;;;;4974370;28;20031;-68
2023/04/04 10:19:36;;;;;;;2.17;1.23;;;;;;;;;;4974324;28;20027;-69
2023/04/04 10:22:02;;;;;;;2.25;1.25;;;;;;;;;;4974051;28;20049;-68
2023/04/04 10:24:28;;;;;;;2.38;1.40;;;;;;;;;;4974257;28;20031;-68
2023/04/04 10:26:54;;;;;;;2.40;1.40;;;;;;;;;;4974442;28;20030;-68
2023/04/04 10:29:20;;;;;;;2.33;1.33;;;;;;;;;;4974400;28;20027;-68
2023/04/04 10:31:52;;;;;;;1.77;1.27;;;;;;;;;;4973992;28;20042;-68
2023/04/04 10:34:40;;;;;;;2.67;1.30;;;;;;;;;;4974280;28;20138;-68
2023/04/04 10:37:07;;;;;;;2.42;1.40;;;;;;;;;;4974116;28;20042;-68
2023/04/04 10:39:39;;;;;;;2.25;1.40;;;;;;;;;;4973968;28;20438;-68
2023/04/04 10:42:06;;;;;;;2.70;1.48;;;;;;;;;;4973998;28;20542;-67
2023/04/04 10:44:33;;;;;;;3.05;1.40;;;;;;;;;;4974180;28;20098;-68
2023/04/04 10:47:22;;;;;;;2.72;1.48;;;;;;;;;;4974113;28;20026;-68
2023/04/04 10:49:49;;;;;;;2.67;1.40;;;;;;;;;;4973333;28;20034;-68
2023/04/04 10:52:20;;;;;;;2.65;1.42;;;;;;;;;;4973741;28;20050;-67
2023/04/04 10:54:46;;;;;;;;;;;;;;;;;;4974051;28;20554;-67
2023/04/04 10:57:13;;;;;;;2.38;1.60;;;;;;;;;;4973685;28;20341;-67
2023/04/04 10:59:57;;;;;;;2.47;1.40;;;;;;;;;;4973699;28;20078;-68
2023/04/04 11:02:42;;;;;;;3.33;1.50;;;;;;;;;;4973483;28;20018;-68
2023/04/04 11:05:26;;;;;;;1.85;1.38;;;;;;;;;;4973322;28;20392;-67
2023/04/04 11:08:06;;;;;;;3.22;1.38;;;;;;;;;;4973691;28;20038;-68
2023/04/04 11:10:36;;;;;;;2.53;1.30;;;;;;;;;;4973345;28;20062;-67
2023/04/04 11:13:11;;;;;;;2.35;1.40;;;;;;;;;;4973489;28;20035;-67
2023/04/04 11:15:56;;;;;;;2.42;1.60;;;;;;;;;;4973262;28;20037;-66
2023/04/04 11:18:31;;;;;;;2.63;1.48;;;;;;;;;;4973390;28;20038;-67
2023/04/04 11:21:05;;;;;;;2.15;1.40;;;;;;;;;;4971910;28;20101;-67
2023/04/04 11:23:48;;;;;;;2.33;1.50;;;;;;;;;;4973274;28;20050;-68
2023/04/04 11:26:35;;;;;;;2.35;1.52;;;;;;;;;;4972928;28;20089;-68
2023/04/04 11:29:08;;;;;;;4.20;1.30;;;;;;;;;;4973308;28;20632;-68
2023/04/04 11:31:39;;;;;;;2.70;1.83;;;;;;;;;;4972659;28;20102;-67
2023/04/04 11:34:09;;;;;;;4.57;1.40;;;;;;;;;;4972925;28;20030;-67
2023/04/04 11:36:35;;;;;;;2.95;1.50;;;;;;;;;;4972767;28;20475;-67
2023/04/04 11:39:05;;;;;;;3.30;1.67;;;;;;;;;;4973115;28;20038;-67
2023/04/04 11:41:56;;;;;;;3.15;1.88;;;;;;;;;;4972787;28;20077;-68
2023/04/04 11:44:24;;;;;;;3.45;1.75;;;;;;;;;;4973008;28;20257;-68
2023/04/04 11:46:59;;;;;;;2.40;1.70;;;;;;;;;;4972874;28;20035;-68
2023/04/04 11:49:28;;;;;;;2.70;1.60;;;;;;;;;;4972897;28;20042;-67
2023/04/04 11:51:53;;;;;;;2.83;1.60;;;;;;;;;;4972157;28;20034;-67
2023/04/04 11:54:19;;;;;;;2.28;1.63;;;;;;;;;;4972830;28;20030;-68
2023/04/04 11:56:45;;;;;;;3.78;1.63;;;;;;;;;;4972846;28;20038;-67
2023/04/04 11:59:18;;;;;;;2.83;1.70;;;;;;;;;;4972866;28;20117;-67
2023/04/04 12:01:44;;;;;;;4.57;1.80;;;;;;;;;;4972255;28;20126;-67
2023/04/04 12:04:10;;;;;;;3.03;2.17;;;;;;;;;;4972515;28;20130;-67
2023/04/04 12:06:37;;;;;;;3.10;1.85;;;;;;;;;;4971666;28;20113;-67
2023/04/04 12:09:03;;;;;;;3.28;1.90;;;;;;;;;;4972400;28;20027;-67
2023/04/04 12:11:29;;;;;;;3.22;1.55;;;;;;;;;;4972434;28;20027;-68
2023/04/04 12:13:56;;;;;;;3.22;1.80;;;;;;;;;;4972581;28;20541;-69
2023/04/04 12:16:21;;;;;;;2.72;1.73;;;;;;;;;;4972265;28;20617;-68
2023/04/04 12:18:48;;;;;;;4.22;1.90;;;;;;;;;;4972359;28;20026;-69
2023/04/04 12:21:14;;;;;;;3.13;1.58;;;;;;;;;;4971939;28;20023;-69
2023/04/04 12:23:40;;;;;;;2.55;1.60;;;;;;;;;;4972048;28;20077;-68
2023/04/04 12:26:08;;;;;;;3.45;1.70;;;;;;;;;;4971799;28;20110;-68
2023/04/04 12:28:36;;;;;;;2.50;1.55;;;;;;;;;;4972045;28;20023;-67
2023/04/04 12:31:04;;;;;;;4.90;1.80;;;;;;;;;;4971817;28;20026;-68
2023/04/04 12:33:33;;;;;;;2.65;1.70;;;;;;;;;;4972264;28;20447;-67
2023/04/04 12:36:02;;;;;;;4.07;1.50;;;;;;;;;;4971796;28;20050;-67
2023/04/04 12:38:29;;;;;;;4.18;1.85;;;;;;;;;;4971848;28;20537;-67
2023/04/04 12:40:54;;;;;;;3.00;1.88;;;;;;;;;;4970357;28;20030;-68
2023/04/04 12:43:20;;;;;;;2.45;1.63;;;;;;;;;;4971621;28;20035;-68
2023/04/04 12:45:48;;;;;;;2.70;1.85;;;;;;;;;;4971744;28;20070;-68
2023/04/04 12:48:16;;;;;;;3.33;1.60;;;;;;;;;;4971569;28;20495;-67
2023/04/04 12:50:59;;;;;;;4.10;1.85;;;;;;;;;;4970406;28;20022;-68
2023/04/04 12:53:28;;;;;;;3.65;1.95;;;;;;;;;;4971705;28;20038;-69
2023/04/04 12:55:58;;;;;;;3.67;1.80;;;;;;;;;;4971869;28;20022;-69
2023/04/04 12:58:24;;;;;;;4.03;1.83;;;;;;;;;;4971594;28;20019;-68
2023/04/04 13:00:52;;;;;;;3.33;1.90;;;;;;;;;;4971380;28;20274;-67
2023/04/04 13:03:21;;;;;;;3.15;1.65;;;;;;;;;;4971082;28;20030;-68
2023/04/04 13:05:47;;;;;;;2.28;1.60;;;;;;;;;;4971906;28;20023;-69
2023/04/04 13:08:14;;;;;;;3.90;1.70;;;;;;;;;;4971620;28;20051;-68
2023/04/04 13:11:03;;;;;;;2.63;1.58;;;;;;;;;;4973113;28;20026;-68
2023/04/04 13:13:33;;;;;;;4.30;1.60;;;;;;;;;;4971615;28;20055;-68
2023/04/04 13:15:58;;;;;;;4.57;1.88;;;;;;;;;;4971522;28;20085;-68
2023/04/04 13:18:25;;;;;;;3.58;1.90;;;;;;;;;;4971168;28;20023;-68
2023/04/04 13:20:52;;;;;;;3.88;1.90;;;;;;;;;;4974938;28;20027;-69
2023/04/04 13:23:18;;;;;;;4.40;1.70;;;;;;;;;;4978262;28;20038;-74
2023/04/04 13:25:43;;;;;;;2.63;1.70;;;;;;;;;;4982124;28;20295;-69
2023/04/04 13:28:12;;;;;;;3.10;1.60;;;;;;;;;;4976655;28;20157;-69
2023/04/04 13:30:42;;;;;;;1.95;1.33;;;;;;;;;;4971057;28;20042;-69
2023/04/04 13:33:08;;;;;;;3.03;1.70;;;;;;;;;;4970701;28;20059;-69
2023/04/04 13:35:34;;;;;;;2.90;1.70;;;;;;;;;;4969622;28;20065;-68
2023/04/04 13:37:59;;;;;;;7.15;1.92;;;;;;;;;;4970835;28;20035;-68
2023/04/04 13:40:25;;;;;;;2.33;1.60;;;;;;;;;;4971166;28;20037;-69
2023/04/04 13:42:50;;;;;;;6.82;3.55;;;;;;;;;;4970708;28;20031;-67
2023/04/04 13:45:16;;;;;;;4.80;1.98;;;;;;;;;;4971213;28;20629;-68
2023/04/04 13:47:41;;;;;;;4.53;2.45;;;;;;;;;;4970749;28;20116;-69
2023/04/04 13:50:07;;;;;;;3.67;2.22;;;;;;;;;;4970949;28;20060;-69
2023/04/04 13:52:33;;;;;;;5.57;2.70;;;;;;;;;;4970562;28;20063;-68
2023/04/04 13:54:58;;;;;;;3.45;1.90;;;;;;;;;;4970862;28;20027;-67
2023/04/04 13:57:23;;;;;;;3.75;1.85;;;;;;;;;;4970690;28;20034;-67
2023/04/04 13:59:49;;;;;;;2.75;1.50;;;;;;;;;;4971093;28;20039;-67
2023/04/04 14:02:14;;;;;;;2.63;1.60;;;;;;;;;;4970691;28;20113;-69
2023/04/04 14:04:40;;;;;;;3.75;1.60;;;;;;;;;;4970817;28;20046;-68
2023/04/04 14:07:05;;;;;;;3.45;1.80;;;;;;;;;;4970491;28;20035;-67
2023/04/04 14:09:31;;;;;;;2.22;1.50;;;;;;;;;;4970819;28;20523;-69
2023/04/04 14:11:56;;;;;;;2.53;1.35;;;;;;;;;;4970633;28;20194;-68
2023/04/04 14:14:21;;;;;;;4.00;1.65;;;;;;;;;;4970721;28;20026;-68
2023/04/04 14:16:47;;;;;;;2.95;1.60;;;;;;;;;;4970880;28;20537;-66
2023/04/04 14:19:13;;;;;;;1.70;1.33;;;;;;;;;;4970550;28;20467;-69
2023/04/04 14:21:38;;;;;;;3.35;1.40;;;;;;;;;;4970789;28;20039;-69
2023/04/04 14:24:04;;;;;;;3.67;1.60;;;;;;;;;;4970598;28;20055;-69
2023/04/04 14:26:30;;;;;;;2.22;1.48;;;;;;;;;;4970703;28;20078;-68
2023/04/04 14:28:55;;;;;;;2.38;1.35;;;;;;;;;;4971228;28;20026;-68
2023/04/04 14:31:21;;;;;;;2.63;1.55;;;;;;;;;;4974262;28;20085;-68
2023/04/04 14:33:46;;;;;;;2.20;1.50;;;;;;;;;;4973893;28;20109;-67
2023/04/04 14:36:12;;;;;;;2.40;1.48;;;;;;;;;;4974314;28;20676;-67
2023/04/04 14:38:37;;;;;;;5.20;2.75;;;;;;;;;;4974177;28;20094;-67
2023/04/04 14:41:03;;;;;;;2.78;1.88;;;;;;;;;;4974197;28;20633;-67
2023/04/04 14:43:29;;;;;;;2.90;1.60;;;;;;;;;;4973692;28;20030;-67